sensor_id;sensor_type;location;lat;lon;timestamp;pressure;altitude;pressure_sealevel;temperature;humidity
63111;BME280;49201;53.426;10.300;2022-12-24T00:01:07;100466.72;;;5.60;100.00
63111;BME280;49201;53.426;10.300;2022-12-24T00:03:33;100467.56;;;5.59;100.00
63111;BME280;49201;53.426;10.300;2022-12-24T00:06:04;100471.69;;;5.57;100.00
63111;BME280;49201;53.426;10.300;2022-12-24T00:08:30;100466.69;;;5.59;100.00
63111;BME280;49201;53.426;10.300;2022-12-24T00:10:55;100475.16;;;5.59;100.00
63111;BME280;49201;53.426;10.300;2022-12-24T00:13:20;100471.81;;;5.60;100.00
63111;BME280;49201;53.426;10.300;2022-12-24T00:15:46;100471.75;;;5.59;100.00
63111;BME280;49201;53.426;10.300;2022-12-24T00:18:12;100473.38;;;5.57;100.00
63111;BME280;49201;53.426;10.300;2022-12-24T00:20:37;100476.84;;;5.59;100.00
63111;BME280;49201;53.426;10.300;2022-12-24T00:23:03;100478.50;;;5.58;100.00
63111;BME280;49201;53.426;10.300;2022-12-24T00:25:28;100473.41;;;5.58;100.00
63111;BME280;49201;53.426;10.300;2022-12-24T00:27:54;100474.28;;;5.59;100.00
63111;BME280;49201;53.426;10.300;2022-12-24T00:30:19;100475.13;;;5.58;100.00
63111;BME280;49201;53.426;10.300;2022-12-24T00:32:45;100477.66;;;5.58;100.00
63111;BME280;49201;53.426;10.300;2022-12-24T00:35:10;100481.78;;;5.56;100.00
63111;BME280;49201;53.426;10.300;2022-12-24T00:37:35;100486.09;;;5.57;100.00
63111;BME280;49201;53.426;10.300;2022-12-24T00:40:02;100482.72;;;5.58;100.00
63111;BME280;49201;53.426;10.300;2022-12-24T00:42:28;100484.41;;;5.57;100.00
63111;BME280;49201;53.426;10.300;2022-12-24T00:44:53;100489.47;;;5.57;100.00
63111;BME280;49201;53.426;10.300;2022-12-24T00:47:19;100490.34;;;5.58;100.00
63111;BME280;49201;53.426;10.300;2022-12-24T00:49:44;100492.81;;;5.56;100.00
63111;BME280;49201;53.426;10.300;2022-12-24T00:52:09;100497.09;;;5.57;100.00
63111;BME280;49201;53.426;10.300;2022-12-24T00:54:35;100494.56;;;5.57;100.00
63111;BME280;49201;53.426;10.300;2022-12-24T00:57:00;100494.50;;;5.56;100.00
63111;BME280;49201;53.426;10.300;2022-12-24T00:59:26;100492.81;;;5.56;100.00
63111;BME280;49201;53.426;10.300;2022-12-24T01:01:51;100490.28;;;5.56;100.00
63111;BME280;49201;53.426;10.300;2022-12-24T01:04:17;100492.81;;;5.56;100.00
63111;BME280;49201;53.426;10.300;2022-12-24T01:07:01;100501.25;;;5.55;100.00
63111;BME280;49201;53.426;10.300;2022-12-24T01:09:26;100497.84;;;5.55;100.00
63111;BME280;49201;53.426;10.300;2022-12-24T01:11:52;100504.63;;;5.54;100.00
63111;BME280;49201;53.426;10.300;2022-12-24T01:14:17;100504.63;;;5.54;100.00
63111;BME280;49201;53.426;10.300;2022-12-24T01:16:42;100513.84;;;5.52;100.00
63111;BME280;49201;53.426;10.300;2022-12-24T01:19:08;100512.19;;;5.53;100.00
63111;BME280;49201;53.426;10.300;2022-12-24T01:21:33;100513.78;;;5.51;100.00
63111;BME280;49201;53.426;10.300;2022-12-24T01:23:59;100518.97;;;5.54;100.00
63111;BME280;49201;53.426;10.300;2022-12-24T01:26:24;100504.56;;;5.53;100.00
63111;BME280;49201;53.426;10.300;2022-12-24T01:28:50;100509.59;;;5.51;100.00
63111;BME280;49201;53.426;10.300;2022-12-24T01:31:17;100524.00;;;5.52;100.00
63111;BME280;49201;53.426;10.300;2022-12-24T01:33:44;100521.47;;;5.52;100.00
63111;BME280;49201;53.426;10.300;2022-12-24T01:36:11;100529.97;;;5.53;100.00
63111;BME280;49201;53.426;10.300;2022-12-24T01:38:37;100523.94;;;5.51;100.00
63111;BME280;49201;53.426;10.300;2022-12-24T01:41:03;100521.41;;;5.51;100.00
63111;BME280;49201;53.426;10.300;2022-12-24T01:43:47;100515.53;;;5.52;100.00
63111;BME280;49201;53.426;10.300;2022-12-24T01:46:19;100522.28;;;5.51;100.00
63111;BME280;49201;53.426;10.300;2022-12-24T01:49:01;100527.31;;;5.50;100.00
63111;BME280;49201;53.426;10.300;2022-12-24T01:53:58;100528.25;;;5.53;100.00
63111;BME280;49201;53.426;10.300;2022-12-24T01:56:26;100533.25;;;5.50;100.00
63111;BME280;49201;53.426;10.300;2022-12-24T01:58:55;100534.09;;;5.51;100.00
63111;BME280;49201;53.426;10.300;2022-12-24T02:01:21;100540.94;;;5.52;100.00
63111;BME280;49201;53.426;10.300;2022-12-24T02:03:47;100537.47;;;5.50;100.00
63111;BME280;49201;53.426;10.300;2022-12-24T02:06:14;100538.38;;;5.52;100.00
63111;BME280;49201;53.426;10.300;2022-12-24T02:08:41;100543.41;;;5.50;100.00
63111;BME280;49201;53.426;10.300;2022-12-24T02:13:35;100551.13;;;5.53;100.00
63111;BME280;49201;53.426;10.300;2022-12-24T02:16:13;100557.06;;;5.54;100.00
63111;BME280;49201;53.426;10.300;2022-12-24T02:24:37;100566.41;;;5.55;100.00
63111;BME280;49201;53.426;10.300;2022-12-24T02:27:27;100571.47;;;5.55;100.00
63111;BME280;49201;53.426;10.300;2022-12-24T02:30:07;100564.81;;;5.57;100.00
63111;BME280;49201;53.426;10.300;2022-12-24T02:32:53;100570.66;;;5.56;100.00
63111;BME280;49201;53.426;10.300;2022-12-24T02:35:30;100571.53;;;5.56;100.00
63111;BME280;49201;53.426;10.300;2022-12-24T02:38:05;100568.13;;;5.56;100.00
63111;BME280;49201;53.426;10.300;2022-12-24T02:40:39;100571.47;;;5.55;100.00
63111;BME280;49201;53.426;10.300;2022-12-24T02:43:14;100571.53;;;5.56;100.00
63111;BME280;49201;53.426;10.300;2022-12-24T02:45:43;100579.03;;;5.53;100.00
63111;BME280;49201;53.426;10.300;2022-12-24T02:48:12;100572.31;;;5.54;100.00
63111;BME280;49201;53.426;10.300;2022-12-24T02:50:39;100578.25;;;5.54;100.00
63111;BME280;49201;53.426;10.300;2022-12-24T02:53:07;100579.03;;;5.53;100.00
63111;BME280;49201;53.426;10.300;2022-12-24T02:58:37;100577.38;;;5.54;100.00
63111;BME280;49201;53.426;10.300;2022-12-24T03:09:27;100576.47;;;5.52;100.00
63111;BME280;49201;53.426;10.300;2022-12-24T03:12:09;100581.50;;;5.50;100.00
63111;BME280;49201;53.426;10.300;2022-12-24T03:14:39;100585.81;;;5.53;100.00
63111;BME280;49201;53.426;10.300;2022-12-24T03:17:05;100585.81;;;5.53;100.00
63111;BME280;49201;53.426;10.300;2022-12-24T03:19:32;100591.72;;;5.52;100.00
63111;BME280;49201;53.426;10.300;2022-12-24T03:22:01;100588.28;;;5.51;100.00
63111;BME280;49201;53.426;10.300;2022-12-24T03:24:28;100590.06;;;5.54;100.00
63111;BME280;49201;53.426;10.300;2022-12-24T03:26:54;100597.69;;;5.54;100.00
63111;BME280;49201;53.426;10.300;2022-12-24T03:29:20;100591.78;;;5.55;100.00
63111;BME280;49201;53.426;10.300;2022-12-24T03:31:49;100594.28;;;5.53;100.00
63111;BME280;49201;53.426;10.300;2022-12-24T03:34:15;100610.28;;;5.51;100.00
63111;BME280;49201;53.426;10.300;2022-12-24T03:36:41;100612.03;;;5.52;100.00
63111;BME280;49201;53.426;10.300;2022-12-24T03:39:07;100611.16;;;5.51;100.00
63111;BME280;49201;53.426;10.300;2022-12-24T03:41:34;100617.94;;;5.52;100.00
63111;BME280;49201;53.426;10.300;2022-12-24T03:43:59;100616.28;;;5.53;100.00
63111;BME280;49201;53.426;10.300;2022-12-24T03:46:25;100617.13;;;5.53;100.00
63111;BME280;49201;53.426;10.300;2022-12-24T03:48:50;100619.56;;;5.50;100.00
63111;BME280;49201;53.426;10.300;2022-12-24T03:51:18;100623.91;;;5.53;100.00
63111;BME280;49201;53.426;10.300;2022-12-24T03:53:44;100619.63;;;5.52;100.00
63111;BME280;49201;53.426;10.300;2022-12-24T03:56:10;100621.34;;;5.53;100.00
63111;BME280;49201;53.426;10.300;2022-12-24T03:58:35;100628.91;;;5.51;100.00
63111;BME280;49201;53.426;10.300;2022-12-24T04:01:01;100630.59;;;5.51;100.00
63111;BME280;49201;53.426;10.300;2022-12-24T04:03:26;100631.47;;;5.51;100.00
63111;BME280;49201;53.426;10.300;2022-12-24T04:06:14;100637.28;;;5.49;100.00
63111;BME280;49201;53.426;10.300;2022-12-24T04:08:40;100634.81;;;5.50;100.00
63111;BME280;49201;53.426;10.300;2022-12-24T04:11:08;100639.00;;;5.50;100.00
63111;BME280;49201;53.426;10.300;2022-12-24T04:13:34;100642.44;;;5.50;100.00
63111;BME280;49201;53.426;10.300;2022-12-24T04:16:01;100648.34;;;5.51;100.00
63111;BME280;49201;53.426;10.300;2022-12-24T04:18:27;100654.31;;;5.51;100.00
63111;BME280;49201;53.426;10.300;2022-12-24T04:20:53;100656.78;;;5.50;100.00
63111;BME280;49201;53.426;10.300;2022-12-24T04:23:19;100655.94;;;5.49;100.00
63111;BME280;49201;53.426;10.300;2022-12-24T04:25:45;100655.13;;;5.50;100.00
63111;BME280;49201;53.426;10.300;2022-12-24T04:28:11;100655.19;;;5.52;100.00
63111;BME280;49201;53.426;10.300;2022-12-24T04:30:38;100658.50;;;5.51;100.00
63111;BME280;49201;53.426;10.300;2022-12-24T04:33:03;100653.50;;;5.52;100.00
63111;BME280;49201;53.426;10.300;2022-12-24T04:35:29;100655.19;;;5.52;100.00
63111;BME280;49201;53.426;10.300;2022-12-24T04:37:54;100662.81;;;5.52;100.00
63111;BME280;49201;53.426;10.300;2022-12-24T04:40:20;100668.63;;;5.49;100.00
63111;BME280;49201;53.426;10.300;2022-12-24T04:42:45;100672.97;;;5.52;100.00
63111;BME280;49201;53.426;10.300;2022-12-24T04:45:10;100671.19;;;5.51;100.00
63111;BME280;49201;53.426;10.300;2022-12-24T04:47:36;100665.28;;;5.50;100.00
63111;BME280;49201;53.426;10.300;2022-12-24T04:50:02;100670.34;;;5.50;100.00
63111;BME280;49201;53.426;10.300;2022-12-24T04:52:27;100671.19;;;5.49;100.00
63111;BME280;49201;53.426;10.300;2022-12-24T04:54:53;100671.13;;;5.48;100.00
63111;BME280;49201;53.426;10.300;2022-12-24T04:57:18;100663.44;;;5.46;100.00
63111;BME280;49201;53.426;10.300;2022-12-24T04:59:44;100663.38;;;5.45;100.00
63111;BME280;49201;53.426;10.300;2022-12-24T05:02:09;100663.31;;;5.43;100.00
63111;BME280;49201;53.426;10.300;2022-12-24T05:04:35;100665.78;;;5.42;100.00
63111;BME280;49201;53.426;10.300;2022-12-24T05:07:00;100668.31;;;5.40;100.00
63111;BME280;49201;53.426;10.300;2022-12-24T05:09:25;100666.59;;;5.41;100.00
63111;BME280;49201;53.426;10.300;2022-12-24T05:11:51;100666.66;;;5.42;100.00
63111;BME280;49201;53.426;10.300;2022-12-24T05:14:16;100664.00;;;5.39;100.00
63111;BME280;49201;53.426;10.300;2022-12-24T05:16:42;100669.09;;;5.39;100.00
63111;BME280;49201;53.426;10.300;2022-12-24T05:19:08;100670.03;;;5.41;100.00
63111;BME280;49201;53.426;10.300;2022-12-24T05:21:34;100669.97;;;5.40;100.00
63111;BME280;49201;53.426;10.300;2022-12-24T05:23:59;100675.91;;;5.40;100.00
63111;BME280;49201;53.426;10.300;2022-12-24T05:26:55;100672.50;;;5.40;100.00
63111;BME280;49201;53.426;10.300;2022-12-24T05:29:21;100675.03;;;5.40;100.00
63111;BME280;49201;53.426;10.300;2022-12-24T05:31:48;100677.44;;;5.37;100.00
63111;BME280;49201;53.426;10.300;2022-12-24T05:34:14;100677.50;;;5.38;100.00
63111;BME280;49201;53.426;10.300;2022-12-24T05:36:40;100687.59;;;5.37;100.00
63111;BME280;49201;53.426;10.300;2022-12-24T05:39:06;100693.56;;;5.37;100.00
63111;BME280;49201;53.426;10.300;2022-12-24T05:41:32;100694.38;;;5.36;100.00
63111;BME280;49201;53.426;10.300;2022-12-24T05:43:57;100696.09;;;5.37;100.00
63111;BME280;49201;53.426;10.300;2022-12-24T05:46:23;100692.59;;;5.34;100.00
63111;BME280;49201;53.426;10.300;2022-12-24T05:48:50;100696.84;;;5.35;100.00
63111;BME280;49201;53.426;10.300;2022-12-24T05:51:17;100695.91;;;5.33;100.00
63111;BME280;49201;53.426;10.300;2022-12-24T05:53:44;100699.31;;;5.33;100.00
63111;BME280;49201;53.426;10.300;2022-12-24T05:56:13;100703.59;;;5.34;100.00
63111;BME280;49201;53.426;10.300;2022-12-24T05:58:39;100701.94;;;5.35;100.00
63111;BME280;49201;53.426;10.300;2022-12-24T06:01:06;100704.47;;;5.35;100.00
63111;BME280;49201;53.426;10.300;2022-12-24T06:03:32;100707.00;;;5.35;100.00
63111;BME280;49201;53.426;10.300;2022-12-24T06:06:06;100706.13;;;5.34;100.00
63111;BME280;49201;53.426;10.300;2022-12-24T06:08:32;100712.91;;;5.34;100.00
63111;BME280;49201;53.426;10.300;2022-12-24T06:11:00;100717.16;;;5.35;100.00
63111;BME280;49201;53.426;10.300;2022-12-24T06:13:26;100718.88;;;5.36;100.00
63111;BME280;49201;53.426;10.300;2022-12-24T06:15:59;100719.69;;;5.35;100.00
63111;BME280;49201;53.426;10.300;2022-12-24T06:18:25;100713.81;;;5.36;100.00
63111;BME280;49201;53.426;10.300;2022-12-24T06:20:52;100718.00;;;5.35;100.00
63111;BME280;49201;53.426;10.300;2022-12-24T06:23:18;100731.63;;;5.37;100.00
63111;BME280;49201;53.426;10.300;2022-12-24T06:25:44;100730.69;;;5.35;100.00
63111;BME280;49201;53.426;10.300;2022-12-24T06:28:10;100721.41;;;5.36;100.00
63111;BME280;49201;53.426;10.300;2022-12-24T06:30:35;100725.59;;;5.34;100.00
63111;BME280;49201;53.426;10.300;2022-12-24T06:33:00;100713.75;;;5.34;100.00
63111;BME280;49201;53.426;10.300;2022-12-24T06:35:26;100717.09;;;5.33;100.00
63111;BME280;49201;53.426;10.300;2022-12-24T06:37:51;100717.91;;;5.32;100.00
63111;BME280;49201;53.426;10.300;2022-12-24T06:40:17;100729.78;;;5.33;100.00
63111;BME280;49201;53.426;10.300;2022-12-24T06:42:42;100728.06;;;5.32;100.00
63111;BME280;49201;53.426;10.300;2022-12-24T06:45:08;100734.78;;;5.32;100.00
63111;BME280;49201;53.426;10.300;2022-12-24T06:47:33;100732.25;;;5.32;100.00
63111;BME280;49201;53.426;10.300;2022-12-24T06:49:59;100736.50;;;5.31;100.00
63111;BME280;49201;53.426;10.300;2022-12-24T06:52:24;100737.28;;;5.30;100.00
63111;BME280;49201;53.426;10.300;2022-12-24T06:54:50;100744.13;;;5.33;100.00
63111;BME280;49201;53.426;10.300;2022-12-24T06:57:15;100744.88;;;5.30;100.00
63111;BME280;49201;53.426;10.300;2022-12-24T06:59:40;100747.41;;;5.30;100.00
63111;BME280;49201;53.426;10.300;2022-12-24T07:02:08;100748.38;;;5.32;100.00
63111;BME280;49201;53.426;10.300;2022-12-24T07:04:34;100755.97;;;5.32;100.00
63111;BME280;49201;53.426;10.300;2022-12-24T07:06:59;100755.84;;;5.29;100.00
63111;BME280;49201;53.426;10.300;2022-12-24T07:09:25;100759.28;;;5.30;100.00
63111;BME280;49201;53.426;10.300;2022-12-24T07:11:50;100760.13;;;5.30;100.00
63111;BME280;49201;53.426;10.300;2022-12-24T07:14:15;100763.47;;;5.29;100.00
63111;BME280;49201;53.426;10.300;2022-12-24T07:16:41;100765.16;;;5.29;100.00
63111;BME280;49201;53.426;10.300;2022-12-24T07:19:06;100768.44;;;5.26;100.00
63111;BME280;49201;53.426;10.300;2022-12-24T07:21:32;100771.91;;;5.28;100.00
63111;BME280;49201;53.426;10.300;2022-12-24T07:23:57;100775.34;;;5.30;100.00
63111;BME280;49201;53.426;10.300;2022-12-24T07:26:23;100774.56;;;5.31;100.00
63111;BME280;49201;53.426;10.300;2022-12-24T07:28:48;100778.75;;;5.31;100.00
63111;BME280;49201;53.426;10.300;2022-12-24T07:31:13;100789.66;;;5.28;100.00
63111;BME280;49201;53.426;10.300;2022-12-24T07:33:39;100783.72;;;5.28;100.00
63111;BME280;49201;53.426;10.300;2022-12-24T07:36:06;100795.66;;;5.30;100.00
63111;BME280;49201;53.426;10.300;2022-12-24T07:38:33;100800.72;;;5.30;100.00
63111;BME280;49201;53.426;10.300;2022-12-24T07:40:59;100798.25;;;5.32;100.00
63111;BME280;49201;53.426;10.300;2022-12-24T07:43:26;100797.41;;;5.31;100.00
63111;BME280;49201;53.426;10.300;2022-12-24T07:45:57;100804.16;;;5.31;100.00
63111;BME280;49201;53.426;10.300;2022-12-24T07:48:24;100808.31;;;5.29;100.00
63111;BME280;49201;53.426;10.300;2022-12-24T07:50:51;100818.50;;;5.30;100.00
63111;BME280;49201;53.426;10.300;2022-12-24T07:53:17;100816.84;;;5.31;100.00
63111;BME280;49201;53.426;10.300;2022-12-24T07:55:43;100819.31;;;5.29;100.00
63111;BME280;49201;53.426;10.300;2022-12-24T07:58:09;100822.72;;;5.30;100.00
63111;BME280;49201;53.426;10.300;2022-12-24T08:00:34;100830.41;;;5.31;100.00
63111;BME280;49201;53.426;10.300;2022-12-24T08:03:00;100836.31;;;5.32;100.00
63111;BME280;49201;53.426;10.300;2022-12-24T08:05:26;100827.81;;;5.30;100.00
63111;BME280;49201;53.426;10.300;2022-12-24T08:07:52;100832.13;;;5.32;100.00
63111;BME280;49201;53.426;10.300;2022-12-24T08:10:18;100837.28;;;5.34;100.00
63111;BME280;49201;53.426;10.300;2022-12-24T08:12:43;100846.53;;;5.33;100.00
63111;BME280;49201;53.426;10.300;2022-12-24T08:15:10;100846.53;;;5.33;100.00
63111;BME280;49201;53.426;10.300;2022-12-24T08:17:36;100847.44;;;5.34;100.00
63111;BME280;49201;53.426;10.300;2022-12-24T08:20:03;100849.22;;;5.36;100.00
63111;BME280;49201;53.426;10.300;2022-12-24T08:22:28;100853.47;;;5.37;100.00
63111;BME280;49201;53.426;10.300;2022-12-24T08:24:53;100849.22;;;5.36;100.00
63111;BME280;49201;53.426;10.300;2022-12-24T08:27:19;100857.63;;;5.35;100.00
63111;BME280;49201;53.426;10.300;2022-12-24T08:29:44;100858.44;;;5.34;100.00
63111;BME280;49201;53.426;10.300;2022-12-24T08:32:10;100866.09;;;5.36;100.00
63111;BME280;49201;53.426;10.300;2022-12-24T08:34:35;100866.19;;;5.37;100.00
63111;BME280;49201;53.426;10.300;2022-12-24T08:37:01;100863.81;;;5.42;100.00
63111;BME280;49201;53.426;10.300;2022-12-24T08:39:26;100864.69;;;5.42;100.00
63111;BME280;49201;53.426;10.300;2022-12-24T08:41:51;100866.41;;;5.43;100.00
63111;BME280;49201;53.426;10.300;2022-12-24T08:44:17;100872.31;;;5.42;100.00
63111;BME280;49201;53.426;10.300;2022-12-24T08:46:42;100866.84;;;5.33;100.00
63111;BME280;49201;53.426;10.300;2022-12-24T08:49:08;100868.66;;;5.36;100.00
63111;BME280;49201;53.426;10.300;2022-12-24T08:51:33;100873.13;;;5.41;100.00
63111;BME280;49201;53.426;10.300;2022-12-24T08:53:59;100868.94;;;5.43;100.00
63111;BME280;49201;53.426;10.300;2022-12-24T08:56:24;100874.22;;;5.48;100.00
63111;BME280;49201;53.426;10.300;2022-12-24T08:58:50;100881.09;;;5.50;100.00
63111;BME280;49201;53.426;10.300;2022-12-24T09:01:18;100891.19;;;5.49;100.00
63111;BME280;49201;53.426;10.300;2022-12-24T09:03:44;100895.38;;;5.48;100.00
63111;BME280;49201;53.426;10.300;2022-12-24T09:06:10;100908.22;;;5.51;100.00
63111;BME280;49201;53.426;10.300;2022-12-24T09:08:35;100901.50;;;5.53;100.00
63111;BME280;49201;53.426;10.300;2022-12-24T09:11:06;100901.13;;;5.65;100.00
63111;BME280;49201;53.426;10.300;2022-12-24T09:13:32;100910.69;;;5.70;100.00
63111;BME280;49201;53.426;10.300;2022-12-24T09:15:58;100908.38;;;5.76;100.00
63111;BME280;49201;53.426;10.300;2022-12-24T09:18:23;100916.00;;;5.76;100.00
63111;BME280;49201;53.426;10.300;2022-12-24T09:20:49;100915.88;;;5.73;100.00
63111;BME280;49201;53.426;10.300;2022-12-24T09:23:15;100918.38;;;5.72;100.00
63111;BME280;49201;53.426;10.300;2022-12-24T09:25:41;100921.88;;;5.75;100.00
63111;BME280;49201;53.426;10.300;2022-12-24T09:28:07;100920.97;;;5.73;100.00
63111;BME280;49201;53.426;10.300;2022-12-24T09:30:33;100924.50;;;5.77;100.00
63111;BME280;49201;53.426;10.300;2022-12-24T09:32:58;100931.22;;;5.76;100.00
63111;BME280;49201;53.426;10.300;2022-12-24T09:35:24;100945.56;;;5.74;100.00
63111;BME280;49201;53.426;10.300;2022-12-24T09:37:49;100944.69;;;5.74;100.00
63111;BME280;49201;53.426;10.300;2022-12-24T09:40:37;100943.03;;;5.74;100.00
63111;BME280;49201;53.426;10.300;2022-12-24T09:43:11;100948.97;;;5.75;100.00
63111;BME280;49201;53.426;10.300;2022-12-24T09:45:40;100963.22;;;5.71;100.00
63111;BME280;49201;53.426;10.300;2022-12-24T09:48:13;100963.94;;;5.69;100.00
63111;BME280;49201;53.426;10.300;2022-12-24T09:50:45;100959.75;;;5.69;100.00
63111;BME280;49201;53.426;10.300;2022-12-24T09:56:20;100960.19;;;5.80;100.00
63111;BME280;49201;53.426;10.300;2022-12-24T09:58:55;100951.03;;;5.83;100.00
63111;BME280;49201;53.426;10.300;2022-12-24T10:01:21;100950.44;;;5.89;100.00
63111;BME280;49201;53.426;10.300;2022-12-24T10:03:47;100948.63;;;5.86;100.00
63111;BME280;49201;53.426;10.300;2022-12-24T10:06:23;100961.69;;;5.75;100.00
63111;BME280;49201;53.426;10.300;2022-12-24T10:09:03;100972.69;;;5.75;100.00
63111;BME280;49201;53.426;10.300;2022-12-24T10:11:44;100967.94;;;5.83;100.00
63111;BME280;49201;53.426;10.300;2022-12-24T10:22:52;100983.47;;;5.89;100.00
63111;BME280;49201;53.426;10.300;2022-12-24T10:25:28;100987.81;;;5.93;100.00
63111;BME280;49201;53.426;10.300;2022-12-24T10:27:57;100980.91;;;5.89;100.00
63111;BME280;49201;53.426;10.300;2022-12-24T10:30:24;100990.94;;;5.86;100.00
63111;BME280;49201;53.426;10.300;2022-12-24T10:32:52;101002.66;;;5.82;100.00
63111;BME280;49201;53.426;10.300;2022-12-24T10:35:24;100997.66;;;5.84;100.00
63111;BME280;49201;53.426;10.300;2022-12-24T10:37:51;101002.66;;;5.82;100.00
63111;BME280;49201;53.426;10.300;2022-12-24T10:40:39;101008.72;;;5.86;100.00
63111;BME280;49201;53.426;10.300;2022-12-24T10:43:20;101013.81;;;5.86;100.00
63111;BME280;49201;53.426;10.300;2022-12-24T10:46:35;101012.81;;;5.82;100.00
63111;BME280;49201;53.426;10.300;2022-12-24T10:48:40;101015.94;;;5.77;100.00
63111;BME280;49201;53.426;10.300;2022-12-24T10:51:19;101023.44;;;5.74;100.00
63111;BME280;49201;53.426;10.300;2022-12-24T10:53:49;101019.38;;;5.77;100.00
63111;BME280;49201;53.426;10.300;2022-12-24T10:56:16;101013.22;;;5.72;100.00
63111;BME280;49201;53.426;10.300;2022-12-24T10:58:51;101015.94;;;5.77;100.00
63111;BME280;49201;53.426;10.300;2022-12-24T11:01:18;101015.06;;;5.76;100.00
63111;BME280;49201;53.426;10.300;2022-12-24T11:03:44;101015.06;;;5.76;100.00
63111;BME280;49201;53.426;10.300;2022-12-24T11:06:14;101014.56;;;5.83;100.00
63111;BME280;49201;53.426;10.300;2022-12-24T11:08:44;101008.78;;;5.87;100.00
63111;BME280;49201;53.426;10.300;2022-12-24T11:11:15;101009.63;;;5.88;100.00
63111;BME280;49201;53.426;10.300;2022-12-24T11:13:59;101011.41;;;5.89;100.00
63111;BME280;49201;53.426;10.300;2022-12-24T11:16:28;101019.19;;;5.93;100.00
63111;BME280;49201;53.426;10.300;2022-12-24T11:18:59;101020.06;;;5.94;100.00
63111;BME280;49201;53.426;10.300;2022-12-24T11:21:28;101019.03;;;5.89;100.00
63111;BME280;49201;53.426;10.300;2022-12-24T11:24:06;101026.59;;;5.87;100.00
63111;BME280;49201;53.426;10.300;2022-12-24T11:26:32;101029.28;;;5.92;100.00
63111;BME280;49201;53.426;10.300;2022-12-24T11:31:36;101023.47;;;5.94;100.00
63111;BME280;49201;53.426;10.300;2022-12-24T11:34:29;101019.41;;;5.98;100.00
63111;BME280;49201;53.426;10.300;2022-12-24T11:39:47;101023.38;;;6.13;100.00
63111;BME280;49201;53.426;10.300;2022-12-24T11:42:36;101018.28;;;6.12;100.00
63111;BME280;49201;53.426;10.300;2022-12-24T11:45:24;101017.38;;;6.11;100.00
63111;BME280;49201;53.426;10.300;2022-12-24T11:47:51;101019.94;;;6.11;100.00
63111;BME280;49201;53.426;10.300;2022-12-24T11:52:49;101016.72;;;6.15;100.00
63111;BME280;49201;53.426;10.300;2022-12-24T11:55:21;101019.91;;;6.32;100.00
63111;BME280;49201;53.426;10.300;2022-12-24T11:58:24;101005.88;;;6.63;100.00
63111;BME280;49201;53.426;10.300;2022-12-24T12:00:47;101009.63;;;6.96;100.00
63111;BME280;49201;53.426;10.300;2022-12-24T12:03:29;101010.28;;;7.14;100.00
63111;BME280;49201;53.426;10.300;2022-12-24T12:05:58;101020.44;;;7.36;100.00
63111;BME280;49201;53.426;10.300;2022-12-24T12:08:27;101017.56;;;7.27;100.00
63111;BME280;49201;53.426;10.300;2022-12-24T12:10:53;101017.56;;;7.27;100.00
63111;BME280;49201;53.426;10.300;2022-12-24T12:13:29;101016.03;;;7.56;100.00
63111;BME280;49201;53.426;10.300;2022-12-24T12:18:36;101009.59;;;7.18;100.00
63111;BME280;49201;53.426;10.300;2022-12-24T12:21:05;101013.59;;;7.12;100.00
63111;BME280;49201;53.426;10.300;2022-12-24T12:23:46;101019.09;;;7.22;100.00
63111;BME280;49201;53.426;10.300;2022-12-24T12:26:18;101021.91;;;7.30;100.00
63111;BME280;49201;53.426;10.300;2022-12-24T12:28:50;101021.66;;;7.47;100.00
63111;BME280;49201;53.426;10.300;2022-12-24T12:31:32;101028.28;;;7.42;100.00
63111;BME280;49201;53.426;10.300;2022-12-24T12:34:03;101026.59;;;7.43;100.00
63111;BME280;49201;53.426;10.300;2022-12-24T12:36:57;101024.75;;;7.62;100.00
63111;BME280;49201;53.426;10.300;2022-12-24T12:39:25;101021.16;;;7.82;100.00
63111;BME280;49201;53.426;10.300;2022-12-24T12:45:36;101026.97;;;8.84;100.00
63111;BME280;49201;53.426;10.300;2022-12-24T12:50:48;101033.00;;;8.86;99.17
63111;BME280;49201;53.426;10.300;2022-12-24T12:56:28;101031.47;;;9.22;97.56
63111;BME280;49201;53.426;10.300;2022-12-24T12:59:04;101029.47;;;9.42;96.25
63111;BME280;49201;53.426;10.300;2022-12-24T13:15:44;101056.41;;;7.94;100.00
63111;BME280;49201;53.426;10.300;2022-12-24T13:20:51;101067.75;;;7.78;100.00
63111;BME280;49201;53.426;10.300;2022-12-24T13:23:21;101075.41;;;7.78;100.00
63111;BME280;49201;53.426;10.300;2022-12-24T13:25:52;101077.06;;;7.76;100.00
63111;BME280;49201;53.426;10.300;2022-12-24T13:30:46;101082.50;;;8.12;100.00
63111;BME280;49201;53.426;10.300;2022-12-24T13:33:13;101086.41;;;8.26;100.00
63111;BME280;49201;53.426;10.300;2022-12-24T13:36:06;101083.06;;;8.55;100.00
63111;BME280;49201;53.426;10.300;2022-12-24T13:47:18;101104.72;;;8.94;97.90
63111;BME280;49201;53.426;10.300;2022-12-24T13:49:50;101121.53;;;8.87;98.44
63111;BME280;49201;53.426;10.300;2022-12-24T13:52:21;101126.44;;;8.80;97.96
63111;BME280;49201;53.426;10.300;2022-12-24T13:57:36;101120.94;;;8.18;100.00
63111;BME280;49201;53.426;10.300;2022-12-24T14:00:05;101126.38;;;8.02;100.00
63111;BME280;49201;53.426;10.300;2022-12-24T14:02:43;101130.28;;;7.92;100.00
63111;BME280;49201;53.426;10.300;2022-12-24T14:08:10;101121.72;;;7.90;100.00
63111;BME280;49201;53.426;10.300;2022-12-24T14:10:43;101131.09;;;7.91;100.00
63111;BME280;49201;53.426;10.300;2022-12-24T14:16:17;101127.72;;;7.92;100.00
63111;BME280;49201;53.426;10.300;2022-12-24T14:21:33;101125.56;;;7.79;100.00